sensor_id;sensor_type;location;lat;lon;timestamp;temperature;humidity
70851;DHT22;58475;49.662;9.636;2022-12-18T00:02:15;-12.08;90.27
70851;DHT22;58475;49.662;9.636;2022-12-18T00:04:40;-11.94;91.50
70851;DHT22;58475;49.662;9.636;2022-12-18T00:07:06;-12.02;90.84
70851;DHT22;58475;49.662;9.636;2022-12-18T00:09:32;-12.05;91.18
70851;DHT22;58475;49.662;9.636;2022-12-18T00:11:57;-11.96;90.92
70851;DHT22;58475;49.662;9.636;2022-12-18T00:14:23;-11.96;91.05
70851;DHT22;58475;49.662;9.636;2022-12-18T00:16:48;-11.79;91.20
70851;DHT22;58475;49.662;9.636;2022-12-18T00:19:14;-11.81;91.14
70851;DHT22;58475;49.662;9.636;2022-12-18T00:21:40;-11.98;90.88
70851;DHT22;58475;49.662;9.636;2022-12-18T00:24:06;-11.98;90.72
70851;DHT22;58475;49.662;9.636;2022-12-18T00:26:33;-11.85;90.83
70851;DHT22;58475;49.662;9.636;2022-12-18T00:29:07;-11.96;90.37
70851;DHT22;58475;49.662;9.636;2022-12-18T00:31:33;-12.06;90.28
70851;DHT22;58475;49.662;9.636;2022-12-18T00:34:00;-12.12;90.72
70851;DHT22;58475;49.662;9.636;2022-12-18T00:36:28;-12.14;90.99
70851;DHT22;58475;49.662;9.636;2022-12-18T00:38:55;-12.09;90.98
70851;DHT22;58475;49.662;9.636;2022-12-18T00:41:21;-12.06;90.45
70851;DHT22;58475;49.662;9.636;2022-12-18T00:44:08;-12.16;91.01
70851;DHT22;58475;49.662;9.636;2022-12-18T00:46:34;-12.09;91.05
70851;DHT22;58475;49.662;9.636;2022-12-18T00:48:59;-12.08;91.17
70851;DHT22;58475;49.662;9.636;2022-12-18T00:51:25;-12.25;91.37
70851;DHT22;58475;49.662;9.636;2022-12-18T00:53:52;-12.25;91.25
70851;DHT22;58475;49.662;9.636;2022-12-18T00:56:18;-12.21;91.48
70851;DHT22;58475;49.662;9.636;2022-12-18T00:58:43;-12.21;90.88
70851;DHT22;58475;49.662;9.636;2022-12-18T01:01:09;-12.19;90.92
70851;DHT22;58475;49.662;9.636;2022-12-18T01:03:35;-12.11;91.29
70851;DHT22;58475;49.662;9.636;2022-12-18T01:06:09;-12.01;91.10
70851;DHT22;58475;49.662;9.636;2022-12-18T01:08:35;-12.14;90.92
70851;DHT22;58475;49.662;9.636;2022-12-18T01:11:07;-12.06;91.00
70851;DHT22;58475;49.662;9.636;2022-12-18T01:13:33;-11.99;90.94
70851;DHT22;58475;49.662;9.636;2022-12-18T01:15:58;-12.12;90.22
70851;DHT22;58475;49.662;9.636;2022-12-18T01:18:24;-12.28;89.96
70851;DHT22;58475;49.662;9.636;2022-12-18T01:20:50;-12.36;90.31
70851;DHT22;58475;49.662;9.636;2022-12-18T01:23:15;-12.45;91.42
70851;DHT22;58475;49.662;9.636;2022-12-18T01:25:41;-12.25;91.84
70851;DHT22;58475;49.662;9.636;2022-12-18T01:28:09;-12.32;92.03
70851;DHT22;58475;49.662;9.636;2022-12-18T01:30:35;-12.40;91.93
70851;DHT22;58475;49.662;9.636;2022-12-18T01:33:00;-12.40;92.01
70851;DHT22;58475;49.662;9.636;2022-12-18T01:35:29;-12.23;91.63
70851;DHT22;58475;49.662;9.636;2022-12-18T01:37:54;-12.32;91.47
70851;DHT22;58475;49.662;9.636;2022-12-18T01:40:20;-12.46;91.72
70851;DHT22;58475;49.662;9.636;2022-12-18T01:42:53;-12.47;91.39
70851;DHT22;58475;49.662;9.636;2022-12-18T01:45:25;-12.32;91.70
70851;DHT22;58475;49.662;9.636;2022-12-18T01:47:57;-12.37;90.69
70851;DHT22;58475;49.662;9.636;2022-12-18T01:53:00;-12.36;90.71
70851;DHT22;58475;49.662;9.636;2022-12-18T01:55:35;-12.33;90.54
70851;DHT22;58475;49.662;9.636;2022-12-18T01:58:03;-12.46;90.22
70851;DHT22;58475;49.662;9.636;2022-12-18T02:00:29;-12.39;90.44
70851;DHT22;58475;49.662;9.636;2022-12-18T02:02:55;-12.35;90.81
70851;DHT22;58475;49.662;9.636;2022-12-18T02:05:46;-12.39;90.29
70851;DHT22;58475;49.662;9.636;2022-12-18T02:08:22;-12.56;90.11
70851;DHT22;58475;49.662;9.636;2022-12-18T02:16:04;-12.40;91.14
70851;DHT22;58475;49.662;9.636;2022-12-18T02:18:41;-12.43;90.55
70851;DHT22;58475;49.662;9.636;2022-12-18T02:26:36;-12.50;90.59
70851;DHT22;58475;49.662;9.636;2022-12-18T02:29:17;-12.50;90.14
70851;DHT22;58475;49.662;9.636;2022-12-18T02:31:54;-12.73;89.89
70851;DHT22;58475;49.662;9.636;2022-12-18T02:34:22;-12.66;91.06
70851;DHT22;58475;49.662;9.636;2022-12-18T02:36:49;-12.67;90.90
70851;DHT22;58475;49.662;9.636;2022-12-18T02:39:17;-12.61;91.07
70851;DHT22;58475;49.662;9.636;2022-12-18T02:41:56;-12.73;91.07
70851;DHT22;58475;49.662;9.636;2022-12-18T02:44:23;-12.63;91.21
70851;DHT22;58475;49.662;9.636;2022-12-18T02:46:50;-12.71;91.02
70851;DHT22;58475;49.662;9.636;2022-12-18T02:49:22;-12.67;91.07
70851;DHT22;58475;49.662;9.636;2022-12-18T02:52:07;-12.76;90.75
70851;DHT22;58475;49.662;9.636;2022-12-18T02:57:38;-12.74;91.04
70851;DHT22;58475;49.662;9.636;2022-12-18T03:00:12;-12.80;90.90
70851;DHT22;58475;49.662;9.636;2022-12-18T03:05:45;-12.66;91.31
70851;DHT22;58475;49.662;9.636;2022-12-18T03:08:19;-12.73;91.38
70851;DHT22;58475;49.662;9.636;2022-12-18T03:11:08;-12.70;91.25
70851;DHT22;58475;49.662;9.636;2022-12-18T03:13:48;-12.81;91.29
70851;DHT22;58475;49.662;9.636;2022-12-18T03:16:19;-12.63;90.89
70851;DHT22;58475;49.662;9.636;2022-12-18T03:18:52;-12.83;90.55
70851;DHT22;58475;49.662;9.636;2022-12-18T03:21:23;-12.85;91.26
70851;DHT22;58475;49.662;9.636;2022-12-18T03:23:51;-12.92;91.17
70851;DHT22;58475;49.662;9.636;2022-12-18T03:26:22;-12.83;91.06
70851;DHT22;58475;49.662;9.636;2022-12-18T03:28:57;-12.91;91.14
70851;DHT22;58475;49.662;9.636;2022-12-18T03:31:28;-12.68;91.68
70851;DHT22;58475;49.662;9.636;2022-12-18T03:33:57;-12.66;91.39
70851;DHT22;58475;49.662;9.636;2022-12-18T03:36:31;-12.67;91.20
70851;DHT22;58475;49.662;9.636;2022-12-18T03:38:57;-12.63;90.79
70851;DHT22;58475;49.662;9.636;2022-12-18T03:41:32;-12.67;90.75
70851;DHT22;58475;49.662;9.636;2022-12-18T03:47:05;-12.68;90.23
70851;DHT22;58475;49.662;9.636;2022-12-18T03:52:20;-12.85;91.28
70851;DHT22;58475;49.662;9.636;2022-12-18T03:54:48;-12.83;91.26
70851;DHT22;58475;49.662;9.636;2022-12-18T03:57:19;-12.87;90.98
70851;DHT22;58475;49.662;9.636;2022-12-18T03:59:49;-12.80;91.48
70851;DHT22;58475;49.662;9.636;2022-12-18T04:02:17;-12.80;90.55
70851;DHT22;58475;49.662;9.636;2022-12-18T04:04:46;-12.98;91.11
70851;DHT22;58475;49.662;9.636;2022-12-18T04:07:13;-12.95;91.11
70851;DHT22;58475;49.662;9.636;2022-12-18T04:09:43;-13.09;90.80
70851;DHT22;58475;49.662;9.636;2022-12-18T04:12:12;-13.08;90.59
70851;DHT22;58475;49.662;9.636;2022-12-18T04:14:37;-13.09;90.06
70851;DHT22;58475;49.662;9.636;2022-12-18T04:17:06;-13.04;90.05
70851;DHT22;58475;49.662;9.636;2022-12-18T04:19:32;-12.99;90.91
70851;DHT22;58475;49.662;9.636;2022-12-18T04:21:59;-13.20;90.65
70851;DHT22;58475;49.662;9.636;2022-12-18T04:24:29;-13.09;89.90
70851;DHT22;58475;49.662;9.636;2022-12-18T04:27:06;-13.11;90.41
70851;DHT22;58475;49.662;9.636;2022-12-18T04:29:38;-13.01;91.22
70851;DHT22;58475;49.662;9.636;2022-12-18T04:32:04;-12.98;91.16
70851;DHT22;58475;49.662;9.636;2022-12-18T04:34:31;-13.06;90.67
70851;DHT22;58475;49.662;9.636;2022-12-18T04:36:57;-13.01;90.65
70851;DHT22;58475;49.662;9.636;2022-12-18T04:39:24;-13.01;90.61
70851;DHT22;58475;49.662;9.636;2022-12-18T04:41:53;-13.18;90.35
70851;DHT22;58475;49.662;9.636;2022-12-18T04:44:18;-13.22;90.70
70851;DHT22;58475;49.662;9.636;2022-12-18T04:46:44;-13.15;91.13
70851;DHT22;58475;49.662;9.636;2022-12-18T04:49:09;-13.15;90.67
70851;DHT22;58475;49.662;9.636;2022-12-18T04:51:36;-13.14;90.40
70851;DHT22;58475;49.662;9.636;2022-12-18T04:54:02;-13.20;90.70
70851;DHT22;58475;49.662;9.636;2022-12-18T04:56:30;-13.12;90.79
70851;DHT22;58475;49.662;9.636;2022-12-18T04:58:56;-13.18;91.02
70851;DHT22;58475;49.662;9.636;2022-12-18T05:01:21;-13.23;90.25
70851;DHT22;58475;49.662;9.636;2022-12-18T05:03:47;-13.25;90.86
70851;DHT22;58475;49.662;9.636;2022-12-18T05:06:12;-13.14;91.21
70851;DHT22;58475;49.662;9.636;2022-12-18T05:08:38;-13.16;91.68
70851;DHT22;58475;49.662;9.636;2022-12-18T05:11:06;-12.92;91.21
70851;DHT22;58475;49.662;9.636;2022-12-18T05:13:33;-13.06;90.80
70851;DHT22;58475;49.662;9.636;2022-12-18T05:15:59;-13.11;90.58
70851;DHT22;58475;49.662;9.636;2022-12-18T05:18:25;-13.25;90.17
70851;DHT22;58475;49.662;9.636;2022-12-18T05:20:51;-13.14;90.59
70851;DHT22;58475;49.662;9.636;2022-12-18T05:23:18;-13.25;89.87
70851;DHT22;58475;49.662;9.636;2022-12-18T05:25:54;-13.22;90.48
70851;DHT22;58475;49.662;9.636;2022-12-18T05:28:21;-13.20;91.01
70851;DHT22;58475;49.662;9.636;2022-12-18T05:30:51;-13.33;90.34
70851;DHT22;58475;49.662;9.636;2022-12-18T05:33:18;-13.35;91.22
70851;DHT22;58475;49.662;9.636;2022-12-18T05:35:44;-13.36;90.33
70851;DHT22;58475;49.662;9.636;2022-12-18T05:38:09;-13.56;90.23
70851;DHT22;58475;49.662;9.636;2022-12-18T05:40:35;-13.60;91.18
70851;DHT22;58475;49.662;9.636;2022-12-18T05:43:02;-13.32;91.82
70851;DHT22;58475;49.662;9.636;2022-12-18T05:45:27;-13.32;91.04
70851;DHT22;58475;49.662;9.636;2022-12-18T05:47:53;-13.47;90.42
70851;DHT22;58475;49.662;9.636;2022-12-18T05:50:18;-13.57;90.40
70851;DHT22;58475;49.662;9.636;2022-12-18T05:52:44;-13.50;90.22
70851;DHT22;58475;49.662;9.636;2022-12-18T05:55:09;-13.64;90.96
70851;DHT22;58475;49.662;9.636;2022-12-18T05:57:35;-13.63;90.71
70851;DHT22;58475;49.662;9.636;2022-12-18T06:00:01;-13.54;90.31
70851;DHT22;58475;49.662;9.636;2022-12-18T06:02:27;-13.39;90.53
70851;DHT22;58475;49.662;9.636;2022-12-18T06:04:54;-13.32;90.75
70851;DHT22;58475;49.662;9.636;2022-12-18T06:07:20;-13.46;91.25
70851;DHT22;58475;49.662;9.636;2022-12-18T06:09:45;-13.40;91.13
70851;DHT22;58475;49.662;9.636;2022-12-18T06:12:11;-13.36;91.50
70851;DHT22;58475;49.662;9.636;2022-12-18T06:14:36;-13.33;91.53
70851;DHT22;58475;49.662;9.636;2022-12-18T06:17:02;-13.15;91.77
70851;DHT22;58475;49.662;9.636;2022-12-18T06:19:27;-13.06;91.48
70851;DHT22;58475;49.662;9.636;2022-12-18T06:21:53;-12.97;91.17
70851;DHT22;58475;49.662;9.636;2022-12-18T06:24:18;-12.85;91.46
70851;DHT22;58475;49.662;9.636;2022-12-18T06:26:44;-12.61;91.67
70851;DHT22;58475;49.662;9.636;2022-12-18T06:29:09;-12.56;91.01
70851;DHT22;58475;49.662;9.636;2022-12-18T06:31:35;-12.61;91.05
70851;DHT22;58475;49.662;9.636;2022-12-18T06:34:07;-12.60;91.26
70851;DHT22;58475;49.662;9.636;2022-12-18T06:36:35;-12.50;91.81
70851;DHT22;58475;49.662;9.636;2022-12-18T06:39:00;-12.56;91.37
70851;DHT22;58475;49.662;9.636;2022-12-18T06:41:26;-12.47;91.06
70851;DHT22;58475;49.662;9.636;2022-12-18T06:43:51;-12.36;91.09
70851;DHT22;58475;49.662;9.636;2022-12-18T06:46:17;-12.26;90.95
70851;DHT22;58475;49.662;9.636;2022-12-18T06:48:46;-12.25;91.18
70851;DHT22;58475;49.662;9.636;2022-12-18T06:51:15;-12.26;90.85
70851;DHT22;58475;49.662;9.636;2022-12-18T06:53:41;-12.35;91.27
70851;DHT22;58475;49.662;9.636;2022-12-18T06:56:07;-12.49;91.01
70851;DHT22;58475;49.662;9.636;2022-12-18T06:58:32;-12.37;91.25
70851;DHT22;58475;49.662;9.636;2022-12-18T07:01:03;-12.63;91.78
70851;DHT22;58475;49.662;9.636;2022-12-18T07:03:29;-12.36;91.53
70851;DHT22;58475;49.662;9.636;2022-12-18T07:05:54;-12.18;91.53
70851;DHT22;58475;49.662;9.636;2022-12-18T07:08:20;-12.22;91.09
70851;DHT22;58475;49.662;9.636;2022-12-18T07:10:49;-12.06;91.14
70851;DHT22;58475;49.662;9.636;2022-12-18T07:13:15;-11.88;91.13
70851;DHT22;58475;49.662;9.636;2022-12-18T07:15:41;-11.95;91.17
70851;DHT22;58475;49.662;9.636;2022-12-18T07:18:07;-11.85;90.95
70851;DHT22;58475;49.662;9.636;2022-12-18T07:20:37;-11.91;90.96
70851;DHT22;58475;49.662;9.636;2022-12-18T07:23:04;-11.82;91.42
70851;DHT22;58475;49.662;9.636;2022-12-18T07:25:36;-11.78;91.65
70851;DHT22;58475;49.662;9.636;2022-12-18T07:28:03;-11.64;91.01
70851;DHT22;58475;49.662;9.636;2022-12-18T07:30:29;-11.63;91.56
70851;DHT22;58475;49.662;9.636;2022-12-18T07:32:55;-11.57;91.99
70851;DHT22;58475;49.662;9.636;2022-12-18T07:35:21;-11.51;91.79
70851;DHT22;58475;49.662;9.636;2022-12-18T07:37:46;-11.29;91.67
70851;DHT22;58475;49.662;9.636;2022-12-18T07:40:12;-11.34;91.46
70851;DHT22;58475;49.662;9.636;2022-12-18T07:42:38;-11.32;91.94
70851;DHT22;58475;49.662;9.636;2022-12-18T07:45:04;-11.32;91.13
70851;DHT22;58475;49.662;9.636;2022-12-18T07:47:29;-11.19;90.40
70851;DHT22;58475;49.662;9.636;2022-12-18T07:49:56;-11.06;91.16
70851;DHT22;58475;49.662;9.636;2022-12-18T07:52:22;-11.06;90.58
70851;DHT22;58475;49.662;9.636;2022-12-18T07:54:47;-10.98;90.18
70851;DHT22;58475;49.662;9.636;2022-12-18T07:57:17;-11.08;90.02
70851;DHT22;58475;49.662;9.636;2022-12-18T07:59:43;-11.08;89.87
70851;DHT22;58475;49.662;9.636;2022-12-18T08:02:08;-11.09;90.69
70851;DHT22;58475;49.662;9.636;2022-12-18T08:04:34;-11.18;90.40
70851;DHT22;58475;49.662;9.636;2022-12-18T08:07:00;-11.16;91.28
70851;DHT22;58475;49.662;9.636;2022-12-18T08:09:25;-11.20;91.68
70851;DHT22;58475;49.662;9.636;2022-12-18T08:11:51;-10.95;91.77
70851;DHT22;58475;49.662;9.636;2022-12-18T08:14:16;-10.72;91.53
70851;DHT22;58475;49.662;9.636;2022-12-18T08:16:42;-10.65;90.89
70851;DHT22;58475;49.662;9.636;2022-12-18T08:19:07;-10.51;91.56
70851;DHT22;58475;49.662;9.636;2022-12-18T08:21:36;-10.29;91.39
70851;DHT22;58475;49.662;9.636;2022-12-18T08:24:02;-10.37;90.13
70851;DHT22;58475;49.662;9.636;2022-12-18T08:26:29;-10.45;89.59
70851;DHT22;58475;49.662;9.636;2022-12-18T08:28:56;-10.19;90.36
70851;DHT22;58475;49.662;9.636;2022-12-18T08:31:23;-10.50;90.05
70851;DHT22;58475;49.662;9.636;2022-12-18T08:33:51;-10.33;90.58
70851;DHT22;58475;49.662;9.636;2022-12-18T08:36:17;-10.38;90.32
70851;DHT22;58475;49.662;9.636;2022-12-18T08:38:43;-10.19;91.63
70851;DHT22;58475;49.662;9.636;2022-12-18T08:41:11;-10.01;91.37
70851;DHT22;58475;49.662;9.636;2022-12-18T08:43:37;-9.85;91.34
70851;DHT22;58475;49.662;9.636;2022-12-18T08:46:23;-9.78;91.11
70851;DHT22;58475;49.662;9.636;2022-12-18T08:48:54;-9.61;91.49
70851;DHT22;58475;49.662;9.636;2022-12-18T08:51:21;-9.48;92.19
70851;DHT22;58475;49.662;9.636;2022-12-18T08:53:46;-9.50;91.06
70851;DHT22;58475;49.662;9.636;2022-12-18T08:56:13;-9.34;91.55
70851;DHT22;58475;49.662;9.636;2022-12-18T08:58:39;-9.37;91.58
70851;DHT22;58475;49.662;9.636;2022-12-18T09:01:07;-9.28;91.53
70851;DHT22;58475;49.662;9.636;2022-12-18T09:03:36;-9.04;91.36
70851;DHT22;58475;49.662;9.636;2022-12-18T09:06:02;-8.97;91.60
70851;DHT22;58475;49.662;9.636;2022-12-18T09:08:29;-8.79;91.45
70851;DHT22;58475;49.662;9.636;2022-12-18T09:10:55;-8.82;90.95
70851;DHT22;58475;49.662;9.636;2022-12-18T09:13:21;-8.71;91.57
70851;DHT22;58475;49.662;9.636;2022-12-18T09:15:52;-8.65;91.73
70851;DHT22;58475;49.662;9.636;2022-12-18T09:18:19;-8.48;91.90
70851;DHT22;58475;49.662;9.636;2022-12-18T09:20:45;-8.38;92.25
70851;DHT22;58475;49.662;9.636;2022-12-18T09:23:11;-8.20;91.81
70851;DHT22;58475;49.662;9.636;2022-12-18T09:25:37;-8.21;91.21
70851;DHT22;58475;49.662;9.636;2022-12-18T09:28:11;-8.13;91.83
70851;DHT22;58475;49.662;9.636;2022-12-18T09:30:38;-8.01;91.69
70851;DHT22;58475;49.662;9.636;2022-12-18T09:33:04;-7.90;90.46
70851;DHT22;58475;49.662;9.636;2022-12-18T09:35:29;-7.86;90.74
70851;DHT22;58475;49.662;9.636;2022-12-18T09:37:55;-7.56;92.72
70851;DHT22;58475;49.662;9.636;2022-12-18T09:40:23;-7.46;92.16
70851;DHT22;58475;49.662;9.636;2022-12-18T09:43:14;-7.34;91.90
70851;DHT22;58475;49.662;9.636;2022-12-18T09:45:45;-7.24;92.18
70851;DHT22;58475;49.662;9.636;2022-12-18T09:48:20;-7.21;91.66
70851;DHT22;58475;49.662;9.636;2022-12-18T09:50:48;-6.94;92.59
70851;DHT22;58475;49.662;9.636;2022-12-18T09:53:21;-6.83;92.36
70851;DHT22;58475;49.662;9.636;2022-12-18T09:55:48;-6.81;92.83
70851;DHT22;58475;49.662;9.636;2022-12-18T09:58:41;-6.50;92.86
70851;DHT22;58475;49.662;9.636;2022-12-18T10:01:20;-6.32;92.88
70851;DHT22;58475;49.662;9.636;2022-12-18T10:03:46;-6.11;92.53
70851;DHT22;58475;49.662;9.636;2022-12-18T10:06:20;-6.01;92.58
70851;DHT22;58475;49.662;9.636;2022-12-18T10:12:07;-5.83;92.74
70851;DHT22;58475;49.662;9.636;2022-12-18T10:20:16;-5.36;92.11
70851;DHT22;58475;49.662;9.636;2022-12-18T10:28:13;-4.95;92.07
70851;DHT22;58475;49.662;9.636;2022-12-18T10:30:40;-4.81;91.22
70851;DHT22;58475;49.662;9.636;2022-12-18T10:33:18;-4.67;90.30
70851;DHT22;58475;49.662;9.636;2022-12-18T10:35:44;-4.60;90.52
70851;DHT22;58475;49.662;9.636;2022-12-18T10:43:15;-4.39;90.71
70851;DHT22;58475;49.662;9.636;2022-12-18T10:45:42;-4.25;89.84
70851;DHT22;58475;49.662;9.636;2022-12-18T10:48:23;-4.12;89.26
70851;DHT22;58475;49.662;9.636;2022-12-18T10:50:50;-4.13;89.06
70851;DHT22;58475;49.662;9.636;2022-12-18T10:53:22;-4.16;89.04
70851;DHT22;58475;49.662;9.636;2022-12-18T10:55:49;-4.08;89.06
70851;DHT22;58475;49.662;9.636;2022-12-18T10:58:29;-3.97;88.85
70851;DHT22;58475;49.662;9.636;2022-12-18T11:06:12;-3.67;88.94
70851;DHT22;58475;49.662;9.636;2022-12-18T11:08:40;-3.56;88.87
70851;DHT22;58475;49.662;9.636;2022-12-18T11:11:25;-3.44;89.35
70851;DHT22;58475;49.662;9.636;2022-12-18T11:16:26;-3.30;89.24
70851;DHT22;58475;49.662;9.636;2022-12-18T11:18:52;-3.24;89.20
70851;DHT22;58475;49.662;9.636;2022-12-18T11:21:17;-3.19;89.33
70851;DHT22;58475;49.662;9.636;2022-12-18T11:23:47;-3.13;88.25
70851;DHT22;58475;49.662;9.636;2022-12-18T11:26:14;-3.09;87.82
70851;DHT22;58475;49.662;9.636;2022-12-18T11:28:51;-3.24;88.00
70851;DHT22;58475;49.662;9.636;2022-12-18T11:31:26;-3.00;88.52
70851;DHT22;58475;49.662;9.636;2022-12-18T11:36:54;-2.89;87.69
70851;DHT22;58475;49.662;9.636;2022-12-18T11:39:40;-2.86;88.15
70851;DHT22;58475;49.662;9.636;2022-12-18T11:42:22;-2.64;87.57
70851;DHT22;58475;49.662;9.636;2022-12-18T11:44:59;-2.40;87.30
70851;DHT22;58475;49.662;9.636;2022-12-18T11:47:37;-2.43;87.19
70851;DHT22;58475;49.662;9.636;2022-12-18T11:50:14;-2.33;87.31
70851;DHT22;58475;49.662;9.636;2022-12-18T11:52:41;-2.27;87.21
70851;DHT22;58475;49.662;9.636;2022-12-18T11:55:23;-2.29;86.80
70851;DHT22;58475;49.662;9.636;2022-12-18T11:57:55;-2.46;86.25
70851;DHT22;58475;49.662;9.636;2022-12-18T12:00:24;-2.30;86.41
70851;DHT22;58475;49.662;9.636;2022-12-18T12:17:13;-2.16;87.69
70851;DHT22;58475;49.662;9.636;2022-12-18T12:20:02;-2.23;87.57
70851;DHT22;58475;49.662;9.636;2022-12-18T12:25:59;-2.17;86.79
70851;DHT22;58475;49.662;9.636;2022-12-18T12:28:54;-2.23;86.73
70851;DHT22;58475;49.662;9.636;2022-12-18T12:36:51;-2.14;86.38
70851;DHT22;58475;49.662;9.636;2022-12-18T12:39:23;-2.19;86.46
70851;DHT22;58475;49.662;9.636;2022-12-18T12:41:52;-2.19;86.18
70851;DHT22;58475;49.662;9.636;2022-12-18T12:44:44;-2.11;86.57
70851;DHT22;58475;49.662;9.636;2022-12-18T12:47:19;-2.09;86.41
70851;DHT22;58475;49.662;9.636;2022-12-18T12:49:46;-2.06;86.59
70851;DHT22;58475;49.662;9.636;2022-12-18T12:52:35;-2.07;87.32
70851;DHT22;58475;49.662;9.636;2022-12-18T12:55:05;-2.00;87.38
70851;DHT22;58475;49.662;9.636;2022-12-18T12:57:40;-2.10;86.68
70851;DHT22;58475;49.662;9.636;2022-12-18T13:00:14;-2.16;85.90
70851;DHT22;58475;49.662;9.636;2022-12-18T13:08:02;-2.02;86.38
70851;DHT22;58475;49.662;9.636;2022-12-18T13:10:40;-2.00;86.54
70851;DHT22;58475;49.662;9.636;2022-12-18T13:13:13;-2.07;86.34
70851;DHT22;58475;49.662;9.636;2022-12-18T13:15:44;-2.05;86.81
70851;DHT22;58475;49.662;9.636;2022-12-18T13:25:57;-2.11;86.55
70851;DHT22;58475;49.662;9.636;2022-12-18T13:28:49;-2.06;87.25
70851;DHT22;58475;49.662;9.636;2022-12-18T13:31:09;-2.13;86.84
70851;DHT22;58475;49.662;9.636;2022-12-18T13:43:40;-2.13;86.85
70851;DHT22;58475;49.662;9.636;2022-12-18T13:46:30;-2.16;87.28
70851;DHT22;58475;49.662;9.636;2022-12-18T13:51:35;-2.14;87.64
70851;DHT22;58475;49.662;9.636;2022-12-18T13:56:46;-2.06;87.03
70851;DHT22;58475;49.662;9.636;2022-12-18T14:02:09;-2.07;87.01
70851;DHT22;58475;49.662;9.636;2022-12-18T14:04:38;-2.13;86.74
70851;DHT22;58475;49.662;9.636;2022-12-18T14:07:10;-2.11;86.63
70851;DHT22;58475;49.662;9.636;2022-12-18T14:09:42;-2.17;87.42
70851;DHT22;58475;49.662;9.636;2022-12-18T14:12:29;-2.22;87.48
70851;DHT22;58475;49.662;9.636;2022-12-18T14:21:02;-2.34;87.49
70851;DHT22;58475;49.662;9.636;2022-12-18T14:23:36;-2.46;87.74
70851;DHT22;58475;49.662;9.636;2022-12-18T14:26:25;-2.53;88.25
70851;DHT22;58475;49.662;9.636;2022-12-18T14:28:59;-2.57;88.42
70851;DHT22;58475;49.662;9.636;2022-12-18T14:31:30;-2.56;88.34
70851;DHT22;58475;49.662;9.636;2022-12-18T14:33:58;-2.62;88.54
70851;DHT22;58475;49.662;9.636;2022-12-18T14:36:27;-2.56;88.21
70851;DHT22;58475;49.662;9.636;2022-12-18T14:38:58;-2.67;88.35
70851;DHT22;58475;49.662;9.636;2022-12-18T14:41:25;-2.74;88.80
70851;DHT22;58475;49.662;9.636;2022-12-18T14:43:52;-2.72;88.36
70851;DHT22;58475;49.662;9.636;2022-12-18T14:48:51;-2.91;88.95
70851;DHT22;58475;49.662;9.636;2022-12-18T14:51:22;-2.88;88.95
70851;DHT22;58475;49.662;9.636;2022-12-18T14:56:21;-2.95;88.41
70851;DHT22;58475;49.662;9.636;2022-12-18T14:59:17;-2.96;88.00
70851;DHT22;58475;49.662;9.636;2022-12-18T15:01:46;-3.09;88.49
70851;DHT22;58475;49.662;9.636;2022-12-18T15:04:28;-3.21;88.92
70851;DHT22;58475;49.662;9.636;2022-12-18T15:09:35;-3.40;89.54
70851;DHT22;58475;49.662;9.636;2022-12-18T15:12:01;-3.39;89.37
70851;DHT22;58475;49.662;9.636;2022-12-18T15:16:56;-3.57;89.52
70851;DHT22;58475;49.662;9.636;2022-12-18T15:19:34;-3.60;89.78
70851;DHT22;58475;49.662;9.636;2022-12-18T15:22:00;-3.74;90.13
70851;DHT22;58475;49.662;9.636;2022-12-18T15:24:35;-3.99;90.39
70851;DHT22;58475;49.662;9.636;2022-12-18T15:27:00;-4.05;92.92
70851;DHT22;58475;49.662;9.636;2022-12-18T15:29:26;-4.03;92.23
70851;DHT22;58475;49.662;9.636;2022-12-18T15:32:01;-3.95;92.37
70851;DHT22;58475;49.662;9.636;2022-12-18T15:34:27;-4.05;92.28
70851;DHT22;58475;49.662;9.636;2022-12-18T15:36:53;-4.05;92.33
70851;DHT22;58475;49.662;9.636;2022-12-18T15:39:18;-4.16;92.32
70851;DHT22;58475;49.662;9.636;2022-12-18T15:41:47;-4.03;91.96
70851;DHT22;58475;49.662;9.636;2022-12-18T15:44:31;-4.10;91.66
70851;DHT22;58475;49.662;9.636;2022-12-18T15:46:57;-4.30;92.52
70851;DHT22;58475;49.662;9.636;2022-12-18T15:49:23;-4.33;92.60
70851;DHT22;58475;49.662;9.636;2022-12-18T15:51:54;-4.42;92.83
70851;DHT22;58475;49.662;9.636;2022-12-18T15:54:22;-4.50;92.78
70851;DHT22;58475;49.662;9.636;2022-12-18T15:57:11;-4.60;93.05
70851;DHT22;58475;49.662;9.636;2022-12-18T15:59:55;-4.64;93.23
70851;DHT22;58475;49.662;9.636;2022-12-18T16:02:24;-4.66;93.59
70851;DHT22;58475;49.662;9.636;2022-12-18T16:04:51;-4.68;93.65
70851;DHT22;58475;49.662;9.636;2022-12-18T16:07:17;-4.74;93.75
70851;DHT22;58475;49.662;9.636;2022-12-18T16:09:43;-4.78;93.54
70851;DHT22;58475;49.662;9.636;2022-12-18T16:12:18;-4.77;93.69
70851;DHT22;58475;49.662;9.636;2022-12-18T16:14:45;-4.85;94.10
70851;DHT22;58475;49.662;9.636;2022-12-18T16:17:11;-4.91;93.77
70851;DHT22;58475;49.662;9.636;2022-12-18T16:19:37;-4.92;94.05
70851;DHT22;58475;49.662;9.636;2022-12-18T16:22:03;-4.95;93.34
70851;DHT22;58475;49.662;9.636;2022-12-18T16:24:31;-4.87;94.09
70851;DHT22;58475;49.662;9.636;2022-12-18T16:26:58;-4.91;94.00
70851;DHT22;58475;49.662;9.636;2022-12-18T16:29:25;-5.01;94.16
70851;DHT22;58475;49.662;9.636;2022-12-18T16:32:01;-5.04;93.97
70851;DHT22;58475;49.662;9.636;2022-12-18T16:34:32;-5.07;93.87
70851;DHT22;58475;49.662;9.636;2022-12-18T16:37:00;-5.09;94.36
70851;DHT22;58475;49.662;9.636;2022-12-18T16:39:26;-5.09;94.19
70851;DHT22;58475;49.662;9.636;2022-12-18T16:41:52;-5.13;94.66
70851;DHT22;58475;49.662;9.636;2022-12-18T16:44:18;-5.22;94.36
70851;DHT22;58475;49.662;9.636;2022-12-18T16:46:45;-5.26;94.28
70851;DHT22;58475;49.662;9.636;2022-12-18T16:49:11;-5.28;94.74
70851;DHT22;58475;49.662;9.636;2022-12-18T16:51:37;-5.30;94.78
70851;DHT22;58475;49.662;9.636;2022-12-18T16:54:03;-5.18;94.64
70851;DHT22;58475;49.662;9.636;2022-12-18T16:56:29;-5.15;94.62
70851;DHT22;58475;49.662;9.636;2022-12-18T16:58:57;-5.19;94.78
70851;DHT22;58475;49.662;9.636;2022-12-18T17:01:23;-5.22;94.54
70851;DHT22;58475;49.662;9.636;2022-12-18T17:03:57;-5.22;94.91
70851;DHT22;58475;49.662;9.636;2022-12-18T17:06:25;-5.18;94.36
70851;DHT22;58475;49.662;9.636;2022-12-18T17:08:57;-5.13;94.29
70851;DHT22;58475;49.662;9.636;2022-12-18T17:11:25;-5.19;93.96
70851;DHT22;58475;49.662;9.636;2022-12-18T17:13:51;-5.22;94.47
70851;DHT22;58475;49.662;9.636;2022-12-18T17:16:16;-5.23;94.64
70851;DHT22;58475;49.662;9.636;2022-12-18T17:18:42;-5.15;94.05
70851;DHT22;58475;49.662;9.636;2022-12-18T17:21:08;-4.73;93.38
70851;DHT22;58475;49.662;9.636;2022-12-18T17:23:34;-4.74;93.28
70851;DHT22;58475;49.662;9.636;2022-12-18T17:26:00;-4.84;93.64
70851;DHT22;58475;49.662;9.636;2022-12-18T17:28:27;-4.92;94.18
70851;DHT22;58475;49.662;9.636;2022-12-18T17:30:54;-5.02;94.75
70851;DHT22;58475;49.662;9.636;2022-12-18T17:33:20;-5.11;94.64
70851;DHT22;58475;49.662;9.636;2022-12-18T17:35:46;-5.12;94.87
70851;DHT22;58475;49.662;9.636;2022-12-18T17:38:12;-5.15;94.82
70851;DHT22;58475;49.662;9.636;2022-12-18T17:40:38;-5.16;94.77
70851;DHT22;58475;49.662;9.636;2022-12-18T17:43:08;-5.18;94.88